createdAt,value
2023-02-26T00:00:15.225Z,-0.60
2023-02-26T00:02:42.951Z,-0.90
2023-02-26T00:05:10.160Z,-1.00
2023-02-26T00:07:37.361Z,-1.00
2023-02-26T00:10:06.358Z,-1.20
2023-02-26T00:12:33.576Z,-0.90
2023-02-26T00:15:00.902Z,-1.10
2023-02-26T00:17:36.549Z,-0.40
2023-02-26T00:22:31.414Z,-1.40
2023-02-26T00:29:52.602Z,-1.70
2023-02-26T00:32:19.688Z,-1.70
2023-02-26T00:34:47.857Z,-1.70
2023-02-26T00:40:03.776Z,-2.20
2023-02-26T00:42:30.849Z,-2.20
2023-02-26T00:44:57.777Z,-2.30
2023-02-26T00:47:48.574Z,-2.20
2023-02-26T00:50:19.730Z,-2.40
2023-02-26T00:53:08.297Z,-2.10
2023-02-26T00:55:34.963Z,-2.20
2023-02-26T00:58:01.646Z,-2.50
2023-02-26T01:00:28.372Z,-2.50
2023-02-26T01:02:55.257Z,-2.50
2023-02-26T01:05:22.374Z,-2.50
2023-02-26T01:08:02.170Z,-2.60
2023-02-26T01:10:29.425Z,-2.40
2023-02-26T01:12:56.921Z,-2.40
2023-02-26T01:15:24.592Z,-2.70
2023-02-26T01:23:22.923Z,-2.80
2023-02-26T01:26:03.498Z,-2.70
2023-02-26T01:28:30.417Z,-2.60
2023-02-26T01:31:02.429Z,-2.80
2023-02-26T01:33:51.819Z,-2.90
2023-02-26T01:36:24.741Z,-2.70
2023-02-26T01:39:02.330Z,-3.00
2023-02-26T01:41:33.780Z,-2.80
2023-02-26T01:44:05.532Z,-3.10
2023-02-26T01:46:41.711Z,-3.20
2023-02-26T01:49:14.744Z,-3.00
2023-02-26T04:26:33.830Z,-3.20
2023-02-26T04:29:00.667Z,-1.60
2023-02-26T04:31:27.573Z,-2.30
2023-02-26T04:33:54.756Z,-1.90
2023-02-26T04:36:21.731Z,-2.20
2023-02-26T04:38:48.513Z,-2.20
2023-02-26T04:41:15.220Z,-1.50
2023-02-26T04:43:41.877Z,-2.20
2023-02-26T04:46:08.714Z,-2.00
2023-02-26T04:48:35.429Z,-2.10
2023-02-26T04:51:02.192Z,-2.00
2023-02-26T04:53:28.880Z,-2.00
2023-02-26T04:55:55.590Z,-2.00
2023-02-26T04:58:22.326Z,-1.90
2023-02-26T05:00:53.751Z,-2.00
2023-02-26T05:03:20.820Z,-2.00
2023-02-26T05:05:47.538Z,-2.00
2023-02-26T05:08:14.255Z,-2.00
2023-02-26T05:10:40.932Z,0.10
2023-02-26T05:13:07.786Z,-2.00
2023-02-26T05:15:34.658Z,-1.90
2023-02-26T05:18:01.380Z,-2.00
2023-02-26T05:20:28.188Z,-2.10
2023-02-26T05:22:54.904Z,-1.80
2023-02-26T05:25:21.610Z,-2.10
2023-02-26T05:27:48.321Z,-1.80
2023-02-26T05:30:15.724Z,-1.80
2023-02-26T05:32:42.564Z,-1.70
2023-02-26T05:35:10.329Z,-2.10
2023-02-26T05:37:37.581Z,-1.80
2023-02-26T05:40:06.687Z,-1.90
2023-02-26T05:42:33.357Z,-1.70
2023-02-26T05:45:00.010Z,-1.90
2023-02-26T05:47:26.873Z,-1.90
2023-02-26T05:49:53.698Z,-1.80
2023-02-26T05:52:20.423Z,-1.80
2023-02-26T05:54:47.078Z,-2.10
2023-02-26T05:57:13.990Z,-2.00
2023-02-26T05:59:40.779Z,-1.90
2023-02-26T06:02:08.044Z,-1.70
2023-02-26T06:04:35.291Z,-1.80
2023-02-26T06:07:02.624Z,-1.60
2023-02-26T06:09:29.581Z,-2.00
2023-02-26T06:11:56.658Z,-2.00
2023-02-26T06:14:23.477Z,-1.30
2023-02-26T06:16:50.266Z,-2.20
2023-02-26T06:19:16.980Z,-1.70
2023-02-26T06:21:43.676Z,-2.20
2023-02-26T06:24:10.354Z,-1.70
2023-02-26T06:26:37.445Z,-1.50
2023-02-26T06:29:04.192Z,-0.80
2023-02-26T06:31:31.043Z,-1.80
2023-02-26T06:34:01.072Z,-1.70
2023-02-26T06:36:28.078Z,-1.40
2023-02-26T06:38:54.931Z,-2.20
2023-02-26T06:41:21.856Z,-1.50
2023-02-26T06:43:48.655Z,-1.60
2023-02-26T06:46:15.404Z,-1.50
2023-02-26T06:48:42.125Z,-1.40
2023-02-26T06:51:09.721Z,-1.40
2023-02-26T06:53:36.508Z,-0.10
2023-02-26T06:56:03.740Z,-1.50
2023-02-26T06:58:30.612Z,0.40
2023-02-26T07:00:57.344Z,-1.30
2023-02-26T07:03:26.298Z,-1.30
2023-02-26T07:05:53.035Z,-0.80
2023-02-26T07:08:19.922Z,-1.00
2023-02-26T07:10:52.404Z,-1.10
2023-02-26T07:13:19.295Z,-0.30
2023-02-26T07:15:48.908Z,0.10
2023-02-26T07:18:17.370Z,-1.40
2023-02-26T07:20:45.134Z,-0.50
2023-02-26T07:23:14.836Z,-0.60
2023-02-26T07:25:41.556Z,0.40
2023-02-26T07:28:10.638Z,-0.90
2023-02-26T07:30:37.459Z,-1.20
2023-02-26T07:33:08.790Z,-1.30
2023-02-26T07:35:36.170Z,-0.80
2023-02-26T07:38:05.001Z,-0.70
2023-02-26T07:40:32.556Z,1.30
2023-02-26T07:43:01.782Z,0.70
2023-02-26T07:45:37.817Z,0.20
2023-02-26T07:48:09.593Z,0.10
2023-02-26T07:50:36.300Z,0.40
2023-02-26T07:53:02.969Z,-0.50
2023-02-26T07:55:53.808Z,-0.60
2023-02-26T07:58:22.886Z,0.10
2023-02-26T08:00:50.104Z,-0.20
2023-02-26T08:09:02.957Z,2.40
2023-02-26T08:11:40.471Z,0.30
2023-02-26T08:14:07.979Z,-0.20
2023-02-26T08:17:08.134Z,-0.40
2023-02-26T08:19:43.886Z,0.20
2023-02-26T08:22:21.536Z,1.50
2023-02-26T08:33:46.393Z,0.40
2023-02-26T08:36:27.876Z,0.00
2023-02-26T08:39:14.766Z,0.40
2023-02-26T08:44:21.373Z,0.60
2023-02-26T08:45:53.641Z,1.10
2023-02-26T08:52:49.325Z,1.50
2023-02-26T08:55:18.892Z,4.30
2023-02-26T08:57:48.686Z,3.20
2023-02-26T09:00:16.924Z,3.80
2023-02-26T09:05:27.026Z,3.10
2023-02-26T09:07:56.842Z,2.10
2023-02-26T09:10:26.766Z,2.40
2023-02-26T09:12:57.071Z,2.50
2023-02-26T09:15:24.154Z,1.30
2023-02-26T09:17:51.818Z,1.00
2023-02-26T09:20:33.193Z,1.20
2023-02-26T09:23:05.051Z,1.60
2023-02-26T09:25:31.944Z,1.50
2023-02-26T09:27:59.163Z,1.80
2023-02-26T09:30:28.759Z,2.80
2023-02-26T09:32:55.425Z,1.10
2023-02-26T09:35:22.478Z,1.40
2023-02-26T09:38:18.106Z,3.90
2023-02-26T09:40:54.581Z,1.50
2023-02-26T09:44:00.037Z,2.70
2023-02-26T09:46:42.630Z,3.30
2023-02-26T09:49:42.795Z,1.40
2023-02-26T09:52:31.564Z,2.00
2023-02-26T09:56:00.723Z,1.50
2023-02-26T10:02:00.856Z,1.40
2023-02-26T10:05:09.684Z,1.40
2023-02-26T10:07:55.046Z,1.40
2023-02-26T10:10:45.608Z,0.40
2023-02-26T10:14:01.506Z,1.20
2023-02-26T10:17:02.385Z,2.80
2023-02-26T10:19:36.546Z,0.90
2023-02-26T10:22:27.074Z,0.70
2023-02-26T10:25:10.167Z,1.90
2023-02-26T10:27:47.177Z,1.50
2023-02-26T10:30:41.337Z,2.50
2023-02-26T10:33:44.164Z,2.70
2023-02-26T10:36:47.196Z,2.20
2023-02-26T10:39:41.340Z,3.30
2023-02-26T10:42:55.543Z,4.30
2023-02-26T10:45:33.414Z,3.10
2023-02-26T10:48:42.473Z,3.30
2023-02-26T10:51:40.390Z,3.50
2023-02-26T10:54:36.054Z,3.20
2023-02-26T10:57:04.721Z,2.90
2023-02-26T10:59:31.869Z,3.00
2023-02-26T11:01:59.955Z,2.90
2023-02-26T11:04:27.787Z,4.30
2023-02-26T11:06:59.581Z,3.50
2023-02-26T11:09:36.004Z,3.10
2023-02-26T11:12:13.525Z,2.00
2023-02-26T11:14:42.920Z,2.50
2023-02-26T11:17:23.523Z,4.00
2023-02-26T11:20:00.972Z,3.00
2023-02-26T11:22:33.054Z,4.00
2023-02-26T11:25:00.528Z,2.60
2023-02-26T11:27:34.892Z,2.20
2023-02-26T11:30:18.701Z,2.80
2023-02-26T11:33:04.801Z,2.50
2023-02-26T11:35:33.231Z,3.20
2023-02-26T11:38:02.745Z,3.40
2023-02-26T11:40:38.698Z,1.90
2023-02-26T11:43:11.263Z,2.70
2023-02-26T11:45:43.648Z,3.40
2023-02-26T11:48:41.885Z,4.80
2023-02-26T11:51:12.439Z,2.50
2023-02-26T11:53:49.441Z,1.90
2023-02-26T11:56:35.710Z,2.60
2023-02-26T11:59:08.776Z,2.00
2023-02-26T12:01:36.875Z,1.30
2023-02-26T12:04:04.148Z,5.10
2023-02-26T12:06:31.218Z,1.30
2023-02-26T12:08:58.040Z,1.80
2023-02-26T12:11:43.897Z,2.10
2023-02-26T12:14:39.796Z,2.50
2023-02-26T12:17:32.262Z,2.80
2023-02-26T12:20:15.404Z,3.50
2023-02-26T12:23:10.489Z,3.90
2023-02-26T12:26:00.496Z,3.60
2023-02-26T12:28:39.635Z,2.90
2023-02-26T12:31:48.838Z,3.30
2023-02-26T12:34:53.646Z,3.60
2023-02-26T12:38:00.156Z,4.00
2023-02-26T12:40:54.356Z,3.90
2023-02-26T12:43:41.819Z,3.80
2023-02-26T12:46:39.720Z,4.00
2023-02-26T12:49:30.761Z,4.10
2023-02-26T12:52:35.541Z,4.50
2023-02-26T12:55:24.656Z,4.20
2023-02-26T12:58:20.845Z,4.10
2023-02-26T13:01:28.870Z,4.40
2023-02-26T13:04:20.769Z,4.30
2023-02-26T13:07:10.507Z,5.10
2023-02-26T13:09:53.535Z,4.60
2023-02-26T13:12:29.992Z,5.00
2023-02-26T13:15:22.593Z,6.30
2023-02-26T13:18:11.480Z,6.70
2023-02-26T13:21:18.158Z,6.20
2023-02-26T13:24:07.196Z,5.80
2023-02-26T13:26:36.070Z,6.20
2023-02-26T13:29:06.364Z,7.10
2023-02-26T13:31:42.174Z,7.70
2023-02-26T13:34:39.596Z,5.80
2023-02-26T13:37:09.171Z,4.80
2023-02-26T13:39:41.130Z,7.60
2023-02-26T13:42:26.991Z,8.70
2023-02-26T13:45:21.669Z,10.00
2023-02-26T13:48:15.015Z,7.70
2023-02-26T13:51:21.873Z,6.30
2023-02-26T13:53:53.951Z,5.70
2023-02-26T13:56:42.577Z,7.30
2023-02-26T13:59:12.345Z,8.40
2023-02-26T14:01:57.034Z,7.50
2023-02-26T14:04:51.170Z,9.70
2023-02-26T14:07:46.419Z,11.20
2023-02-26T14:10:19.991Z,9.50
2023-02-26T14:12:49.206Z,7.80
2023-02-26T14:15:28.795Z,8.20
2023-02-26T14:18:04.427Z,7.50
2023-02-26T14:20:34.459Z,6.80
2023-02-26T14:23:11.040Z,6.70
2023-02-26T14:25:47.107Z,5.50
2023-02-26T14:28:30.402Z,4.80
2023-02-26T14:31:03.461Z,4.50
2023-02-26T14:33:32.463Z,4.00
2023-02-26T14:35:59.701Z,3.50
2023-02-26T14:38:46.493Z,3.10
2023-02-26T14:41:25.340Z,4.00
2023-02-26T14:44:03.247Z,3.20
2023-02-26T14:46:30.380Z,3.20
2023-02-26T14:48:57.855Z,2.90
2023-02-26T14:52:20.288Z,2.70
2023-02-26T14:55:13.454Z,3.10
2023-02-26T14:58:02.309Z,3.70
2023-02-26T15:00:49.085Z,2.60
2023-02-26T15:03:47.103Z,3.20
2023-02-26T15:06:16.775Z,3.50
2023-02-26T15:08:46.471Z,6.00
2023-02-26T15:11:48.732Z,7.60
2023-02-26T15:14:44.658Z,6.70
2023-02-26T15:17:38.145Z,7.70
2023-02-26T15:20:30.182Z,7.00
2023-02-26T15:23:11.141Z,5.40
2023-02-26T15:25:43.922Z,4.00
2023-02-26T15:28:24.711Z,3.60
2023-02-26T15:30:52.268Z,3.40
2023-02-26T15:33:23.797Z,1.70
2023-02-26T15:35:52.166Z,2.70
2023-02-26T15:38:19.398Z,2.80
2023-02-26T15:40:46.603Z,2.60
2023-02-26T15:43:24.187Z,2.50
2023-02-26T15:45:57.267Z,2.20
2023-02-26T15:48:27.784Z,2.10
2023-02-26T15:50:58.787Z,2.00
2023-02-26T15:53:34.255Z,2.20
2023-02-26T15:56:05.815Z,3.00
2023-02-26T15:58:47.208Z,3.40
2023-02-26T16:01:20.422Z,3.80
2023-02-26T16:08:45.321Z,2.70
2023-02-26T16:11:14.173Z,2.30
2023-02-26T16:13:43.643Z,1.90
2023-02-26T16:16:21.811Z,1.80
2023-02-26T16:18:48.736Z,1.90
2023-02-26T16:26:41.766Z,1.60
2023-02-26T16:29:16.249Z,1.30
2023-02-26T16:39:23.172Z,1.10
2023-02-26T16:42:14.120Z,1.10
2023-02-26T16:44:48.922Z,0.80
2023-02-26T16:47:16.482Z,0.80
2023-02-26T16:49:44.359Z,0.60
2023-02-26T16:57:44.605Z,0.30
2023-02-26T17:00:29.561Z,0.30
2023-02-26T17:03:18.183Z,0.40
2023-02-26T17:05:55.877Z,0.20
2023-02-26T17:08:27.733Z,0.20
2023-02-26T17:13:32.750Z,0.20
2023-02-26T17:18:29.318Z,-0.10
2023-02-26T17:20:58.276Z,-0.10
2023-02-26T17:23:30.336Z,0.20
2023-02-26T17:28:35.512Z,-0.30
2023-02-26T17:31:03.094Z,-0.50
2023-02-26T17:33:29.982Z,0.20
2023-02-26T17:36:00.106Z,0.10
2023-02-26T17:38:27.922Z,-0.40
2023-02-26T17:40:55.745Z,-0.50
2023-02-26T17:43:23.120Z,-0.60
2023-02-26T17:45:49.965Z,-1.00
2023-02-26T17:48:17.846Z,-0.20
2023-02-26T17:50:51.173Z,-0.10
2023-02-26T17:53:19.414Z,-0.10
2023-02-26T17:55:47.492Z,0.30
2023-02-26T17:58:21.850Z,0.30
2023-02-26T18:00:53.128Z,-0.10
2023-02-26T18:03:20.632Z,-1.90
2023-02-26T18:05:48.864Z,-0.90
2023-02-26T18:08:29.755Z,-0.90
2023-02-26T18:10:57.908Z,-0.60
2023-02-26T18:13:25.457Z,-0.60
2023-02-26T18:23:16.781Z,-1.00
2023-02-26T18:25:45.317Z,-1.00
2023-02-26T18:28:23.936Z,-0.20
2023-02-26T18:30:52.334Z,-0.90
2023-02-26T18:35:53.165Z,-1.00
2023-02-26T18:38:23.553Z,-1.20
2023-02-26T18:43:18.193Z,-1.20
2023-02-26T18:45:46.455Z,-1.20
2023-02-26T18:48:16.023Z,-1.10
2023-02-26T18:50:44.053Z,-1.10
2023-02-26T18:53:10.845Z,-1.10
2023-02-26T18:55:37.998Z,-0.80
2023-02-26T18:58:05.140Z,-1.10
2023-02-26T19:00:32.184Z,-1.20
2023-02-26T19:02:58.965Z,-0.70
2023-02-26T19:05:27.062Z,-0.80
2023-02-26T19:07:54.446Z,-0.50
2023-02-26T19:10:21.723Z,-1.50
2023-02-26T19:12:50.309Z,-1.40
2023-02-26T19:15:17.155Z,-0.60
2023-02-26T19:17:44.097Z,-0.40
2023-02-26T19:20:11.842Z,-1.30
2023-02-26T19:22:38.779Z,-0.70
2023-02-26T19:25:06.493Z,-0.50
2023-02-26T19:27:33.546Z,-0.60
2023-02-26T19:30:00.299Z,-0.60
2023-02-26T19:32:28.663Z,-0.90
2023-02-26T19:34:55.881Z,-1.30
2023-02-26T19:37:23.207Z,-1.20
2023-02-26T19:47:11.561Z,-1.40
2023-02-26T19:49:38.277Z,-1.20
2023-02-26T19:52:05.100Z,-1.20
2023-02-26T19:54:31.916Z,-1.30
2023-02-26T19:56:58.610Z,-1.40
2023-02-26T19:59:25.328Z,-1.20
2023-02-26T20:01:52.128Z,-1.80
2023-02-26T20:04:19.259Z,-1.70
2023-02-26T20:06:46.031Z,-1.60
2023-02-26T20:09:14.153Z,-1.40
2023-02-26T20:11:41.206Z,-1.50
2023-02-26T20:14:08.011Z,-1.50
2023-02-26T20:16:34.872Z,-1.40
2023-02-26T20:19:01.728Z,-1.50
2023-02-26T20:21:28.735Z,-1.50
2023-02-26T20:23:56.768Z,-1.70
2023-02-26T20:26:23.922Z,-1.60
2023-02-26T20:28:50.620Z,-1.60
2023-02-26T20:31:17.511Z,-1.80
2023-02-26T20:33:44.529Z,-1.60
2023-02-26T20:36:11.402Z,-1.60
2023-02-26T21:47:37.445Z,-1.60
2023-02-26T21:50:05.945Z,-2.60
2023-02-26T23:23:32.588Z,-2.40
2023-02-26T23:25:59.329Z,-2.60
2023-02-26T23:28:26.703Z,-2.50
2023-02-26T23:30:53.484Z,-2.50
2023-02-26T23:33:20.324Z,-2.50
2023-02-26T23:35:47.520Z,-2.60
2023-02-26T23:38:14.358Z,-2.50
2023-02-26T23:40:41.170Z,-2.50
2023-02-26T23:43:07.969Z,-2.80
2023-02-26T23:52:57.317Z,-2.90
2023-02-26T23:55:24.384Z,-2.70
2023-02-26T23:57:51.200Z,-2.30
